sensor_id;sensor_type;location;lat;lon;timestamp;P1;durP1;ratioP1;P2;durP2;ratioP2
15848;SDS011;8024;48.708;9.394;2023-08-17T00:00:01;7.20;;;5.07;;
15848;SDS011;8024;48.708;9.394;2023-08-17T00:02:29;5.10;;;4.70;;
15848;SDS011;8024;48.708;9.394;2023-08-17T00:04:57;4.17;;;3.87;;
15848;SDS011;8024;48.708;9.394;2023-08-17T00:07:24;5.50;;;5.03;;
15848;SDS011;8024;48.708;9.394;2023-08-17T00:09:51;6.17;;;4.93;;
15848;SDS011;8024;48.708;9.394;2023-08-17T00:12:18;5.30;;;4.90;;
15848;SDS011;8024;48.708;9.394;2023-08-17T00:14:47;4.80;;;4.30;;
15848;SDS011;8024;48.708;9.394;2023-08-17T00:17:14;4.93;;;4.47;;
15848;SDS011;8024;48.708;9.394;2023-08-17T00:19:41;4.97;;;4.57;;
15848;SDS011;8024;48.708;9.394;2023-08-17T00:22:08;6.23;;;4.57;;
15848;SDS011;8024;48.708;9.394;2023-08-17T00:24:35;6.47;;;4.37;;
15848;SDS011;8024;48.708;9.394;2023-08-17T00:27:03;4.80;;;4.40;;
15848;SDS011;8024;48.708;9.394;2023-08-17T00:29:30;5.00;;;4.60;;
15848;SDS011;8024;48.708;9.394;2023-08-17T00:32:01;4.63;;;4.20;;
15848;SDS011;8024;48.708;9.394;2023-08-17T00:34:28;8.23;;;4.53;;
15848;SDS011;8024;48.708;9.394;2023-08-17T00:36:56;4.90;;;4.47;;
15848;SDS011;8024;48.708;9.394;2023-08-17T00:39:23;5.03;;;4.63;;
15848;SDS011;8024;48.708;9.394;2023-08-17T00:41:50;6.77;;;4.90;;
15848;SDS011;8024;48.708;9.394;2023-08-17T00:44:17;5.23;;;4.73;;
15848;SDS011;8024;48.708;9.394;2023-08-17T00:46:45;4.67;;;4.13;;
15848;SDS011;8024;48.708;9.394;2023-08-17T00:49:13;5.27;;;4.40;;
15848;SDS011;8024;48.708;9.394;2023-08-17T00:51:40;4.70;;;4.40;;
15848;SDS011;8024;48.708;9.394;2023-08-17T00:54:08;7.37;;;5.53;;
15848;SDS011;8024;48.708;9.394;2023-08-17T00:56:36;7.60;;;5.17;;
15848;SDS011;8024;48.708;9.394;2023-08-17T00:59:03;5.77;;;5.03;;
15848;SDS011;8024;48.708;9.394;2023-08-17T01:01:30;4.97;;;4.57;;
15848;SDS011;8024;48.708;9.394;2023-08-17T01:03:58;7.13;;;5.03;;
15848;SDS011;8024;48.708;9.394;2023-08-17T01:06:26;5.60;;;4.87;;
15848;SDS011;8024;48.708;9.394;2023-08-17T01:08:53;5.40;;;4.90;;
15848;SDS011;8024;48.708;9.394;2023-08-17T01:11:22;7.57;;;5.00;;
15848;SDS011;8024;48.708;9.394;2023-08-17T01:13:57;6.00;;;5.00;;
15848;SDS011;8024;48.708;9.394;2023-08-17T01:16:29;6.63;;;4.43;;
15848;SDS011;8024;48.708;9.394;2023-08-17T01:19:00;5.83;;;5.33;;
15848;SDS011;8024;48.708;9.394;2023-08-17T01:21:35;5.67;;;4.80;;
15848;SDS011;8024;48.708;9.394;2023-08-17T01:24:10;4.53;;;4.23;;
15848;SDS011;8024;48.708;9.394;2023-08-17T01:26:38;7.50;;;5.10;;
15848;SDS011;8024;48.708;9.394;2023-08-17T01:29:05;6.03;;;5.43;;
15848;SDS011;8024;48.708;9.394;2023-08-17T01:31:35;5.00;;;4.60;;
15848;SDS011;8024;48.708;9.394;2023-08-17T01:34:07;5.83;;;5.33;;
15848;SDS011;8024;48.708;9.394;2023-08-17T01:36:39;6.27;;;4.80;;
15848;SDS011;8024;48.708;9.394;2023-08-17T01:39:12;7.13;;;5.37;;
15848;SDS011;8024;48.708;9.394;2023-08-17T01:41:41;6.30;;;5.70;;
15848;SDS011;8024;48.708;9.394;2023-08-17T01:44:10;6.50;;;5.90;;
15848;SDS011;8024;48.708;9.394;2023-08-17T01:46:38;6.83;;;6.13;;
15848;SDS011;8024;48.708;9.394;2023-08-17T01:49:07;7.70;;;5.40;;
15848;SDS011;8024;48.708;9.394;2023-08-17T01:51:34;8.53;;;7.57;;
15848;SDS011;8024;48.708;9.394;2023-08-17T01:54:01;6.67;;;6.07;;
15848;SDS011;8024;48.708;9.394;2023-08-17T01:56:29;6.37;;;5.80;;
15848;SDS011;8024;48.708;9.394;2023-08-17T01:58:56;7.37;;;5.40;;
15848;SDS011;8024;48.708;9.394;2023-08-17T02:01:24;6.50;;;5.90;;
15848;SDS011;8024;48.708;9.394;2023-08-17T02:03:51;7.03;;;6.23;;
15848;SDS011;8024;48.708;9.394;2023-08-17T02:06:18;7.37;;;6.67;;
15848;SDS011;8024;48.708;9.394;2023-08-17T02:08:45;8.03;;;6.60;;
15848;SDS011;8024;48.708;9.394;2023-08-17T02:11:12;7.17;;;6.47;;
15848;SDS011;8024;48.708;9.394;2023-08-17T02:13:41;6.87;;;5.80;;
15848;SDS011;8024;48.708;9.394;2023-08-17T02:16:08;6.00;;;5.50;;
15848;SDS011;8024;48.708;9.394;2023-08-17T02:18:35;6.40;;;5.90;;
15848;SDS011;8024;48.708;9.394;2023-08-17T02:21:02;7.70;;;7.00;;
15848;SDS011;8024;48.708;9.394;2023-08-17T02:23:30;6.23;;;5.47;;
15848;SDS011;8024;48.708;9.394;2023-08-17T02:25:57;6.97;;;6.10;;
15848;SDS011;8024;48.708;9.394;2023-08-17T02:28:24;6.93;;;6.20;;
15848;SDS011;8024;48.708;9.394;2023-08-17T02:30:55;7.00;;;5.77;;
15848;SDS011;8024;48.708;9.394;2023-08-17T02:33:24;8.90;;;6.73;;
15848;SDS011;8024;48.708;9.394;2023-08-17T02:35:51;6.60;;;6.10;;
15848;SDS011;8024;48.708;9.394;2023-08-17T02:38:18;6.93;;;6.33;;
15848;SDS011;8024;48.708;9.394;2023-08-17T02:40:46;7.50;;;6.80;;
15848;SDS011;8024;48.708;9.394;2023-08-17T02:43:14;7.80;;;6.30;;
15848;SDS011;8024;48.708;9.394;2023-08-17T02:45:42;7.97;;;6.23;;
15848;SDS011;8024;48.708;9.394;2023-08-17T02:48:10;9.77;;;7.20;;
15848;SDS011;8024;48.708;9.394;2023-08-17T02:50:37;9.60;;;8.27;;
15848;SDS011;8024;48.708;9.394;2023-08-17T02:53:05;9.60;;;8.70;;
15848;SDS011;8024;48.708;9.394;2023-08-17T02:55:32;9.97;;;7.23;;
15848;SDS011;8024;48.708;9.394;2023-08-17T02:57:59;6.97;;;6.30;;
15848;SDS011;8024;48.708;9.394;2023-08-17T03:00:27;8.50;;;6.43;;
15848;SDS011;8024;48.708;9.394;2023-08-17T03:02:54;6.60;;;5.50;;
15848;SDS011;8024;48.708;9.394;2023-08-17T03:05:23;6.60;;;5.47;;
15848;SDS011;8024;48.708;9.394;2023-08-17T03:07:50;8.63;;;6.00;;
15848;SDS011;8024;48.708;9.394;2023-08-17T03:10:17;6.47;;;5.87;;
15848;SDS011;8024;48.708;9.394;2023-08-17T03:12:44;8.00;;;6.40;;
15848;SDS011;8024;48.708;9.394;2023-08-17T03:15:12;7.73;;;6.93;;
15848;SDS011;8024;48.708;9.394;2023-08-17T03:17:39;6.53;;;5.93;;
15848;SDS011;8024;48.708;9.394;2023-08-17T03:20:06;10.50;;;6.77;;
15848;SDS011;8024;48.708;9.394;2023-08-17T03:22:35;9.57;;;7.10;;
15848;SDS011;8024;48.708;9.394;2023-08-17T03:25:03;8.17;;;7.33;;
15848;SDS011;8024;48.708;9.394;2023-08-17T03:27:30;8.10;;;7.33;;
15848;SDS011;8024;48.708;9.394;2023-08-17T03:29:58;7.37;;;6.77;;
15848;SDS011;8024;48.708;9.394;2023-08-17T03:32:25;8.53;;;7.40;;
15848;SDS011;8024;48.708;9.394;2023-08-17T03:34:52;8.80;;;7.90;;
15848;SDS011;8024;48.708;9.394;2023-08-17T03:37:19;9.73;;;8.70;;
15848;SDS011;8024;48.708;9.394;2023-08-17T03:39:47;10.40;;;9.17;;
15848;SDS011;8024;48.708;9.394;2023-08-17T03:42:15;12.20;;;9.73;;
15848;SDS011;8024;48.708;9.394;2023-08-17T03:44:42;10.43;;;8.87;;
15848;SDS011;8024;48.708;9.394;2023-08-17T03:47:09;10.07;;;9.07;;
15848;SDS011;8024;48.708;9.394;2023-08-17T03:49:36;10.23;;;9.23;;
15848;SDS011;8024;48.708;9.394;2023-08-17T03:52:04;9.10;;;8.20;;
15848;SDS011;8024;48.708;9.394;2023-08-17T03:54:31;9.10;;;8.20;;
15848;SDS011;8024;48.708;9.394;2023-08-17T03:57:00;9.50;;;8.53;;
15848;SDS011;8024;48.708;9.394;2023-08-17T03:59:27;8.47;;;7.50;;
15848;SDS011;8024;48.708;9.394;2023-08-17T04:01:54;8.87;;;7.97;;
15848;SDS011;8024;48.708;9.394;2023-08-17T04:04:21;8.47;;;7.67;;
15848;SDS011;8024;48.708;9.394;2023-08-17T04:06:48;8.03;;;7.13;;
15848;SDS011;8024;48.708;9.394;2023-08-17T04:09:15;9.27;;;8.00;;
15848;SDS011;8024;48.708;9.394;2023-08-17T04:11:42;9.67;;;8.70;;
15848;SDS011;8024;48.708;9.394;2023-08-17T04:14:12;10.87;;;8.10;;
15848;SDS011;8024;48.708;9.394;2023-08-17T04:16:39;9.77;;;8.30;;
15848;SDS011;8024;48.708;9.394;2023-08-17T04:19:06;9.53;;;8.53;;
15848;SDS011;8024;48.708;9.394;2023-08-17T04:21:33;12.67;;;8.87;;
15848;SDS011;8024;48.708;9.394;2023-08-17T04:24:00;13.27;;;9.60;;
15848;SDS011;8024;48.708;9.394;2023-08-17T04:26:28;8.33;;;7.53;;
15848;SDS011;8024;48.708;9.394;2023-08-17T04:28:55;12.73;;;8.03;;
15848;SDS011;8024;48.708;9.394;2023-08-17T04:31:23;9.27;;;8.37;;
15848;SDS011;8024;48.708;9.394;2023-08-17T04:33:51;9.60;;;8.53;;
15848;SDS011;8024;48.708;9.394;2023-08-17T04:36:18;11.97;;;9.10;;
15848;SDS011;8024;48.708;9.394;2023-08-17T04:38:46;9.27;;;8.37;;
15848;SDS011;8024;48.708;9.394;2023-08-17T04:41:13;8.70;;;7.80;;
15848;SDS011;8024;48.708;9.394;2023-08-17T04:43:40;12.73;;;8.90;;
15848;SDS011;8024;48.708;9.394;2023-08-17T04:46:08;10.47;;;8.03;;
15848;SDS011;8024;48.708;9.394;2023-08-17T04:48:36;9.47;;;7.17;;
15848;SDS011;8024;48.708;9.394;2023-08-17T04:51:03;8.67;;;6.93;;
15848;SDS011;8024;48.708;9.394;2023-08-17T04:53:30;10.50;;;7.40;;
15848;SDS011;8024;48.708;9.394;2023-08-17T04:55:58;8.93;;;7.83;;
15848;SDS011;8024;48.708;9.394;2023-08-17T04:58:25;8.50;;;7.53;;
15848;SDS011;8024;48.708;9.394;2023-08-17T05:00:52;11.53;;;7.97;;
15848;SDS011;8024;48.708;9.394;2023-08-17T05:03:19;10.53;;;7.10;;
15848;SDS011;8024;48.708;9.394;2023-08-17T05:05:48;10.40;;;8.53;;
15848;SDS011;8024;48.708;9.394;2023-08-17T05:08:15;10.57;;;9.27;;
15848;SDS011;8024;48.708;9.394;2023-08-17T05:10:42;17.90;;;11.97;;
15848;SDS011;8024;48.708;9.394;2023-08-17T05:13:09;14.67;;;9.83;;
15848;SDS011;8024;48.708;9.394;2023-08-17T05:15:37;9.83;;;8.43;;
15848;SDS011;8024;48.708;9.394;2023-08-17T05:18:04;9.67;;;7.70;;
15848;SDS011;8024;48.708;9.394;2023-08-17T05:20:31;10.23;;;8.10;;
15848;SDS011;8024;48.708;9.394;2023-08-17T05:23:00;13.60;;;10.43;;
15848;SDS011;8024;48.708;9.394;2023-08-17T05:25:27;15.70;;;11.37;;
15848;SDS011;8024;48.708;9.394;2023-08-17T05:27:54;12.80;;;9.50;;
15848;SDS011;8024;48.708;9.394;2023-08-17T05:30:21;16.60;;;11.87;;
15848;SDS011;8024;48.708;9.394;2023-08-17T05:32:48;16.43;;;11.90;;
15848;SDS011;8024;48.708;9.394;2023-08-17T05:35:16;15.67;;;13.43;;
15848;SDS011;8024;48.708;9.394;2023-08-17T05:37:43;20.37;;;15.27;;
15848;SDS011;8024;48.708;9.394;2023-08-17T05:40:12;22.70;;;18.77;;
15848;SDS011;8024;48.708;9.394;2023-08-17T05:42:39;12.27;;;10.70;;
15848;SDS011;8024;48.708;9.394;2023-08-17T05:45:07;19.10;;;15.47;;
15848;SDS011;8024;48.708;9.394;2023-08-17T05:47:35;21.53;;;15.63;;
15848;SDS011;8024;48.708;9.394;2023-08-17T05:50:02;22.97;;;16.60;;
15848;SDS011;8024;48.708;9.394;2023-08-17T05:52:31;19.40;;;15.13;;
15848;SDS011;8024;48.708;9.394;2023-08-17T05:54:58;17.70;;;14.20;;
15848;SDS011;8024;48.708;9.394;2023-08-17T05:57:26;15.90;;;13.90;;
15848;SDS011;8024;48.708;9.394;2023-08-17T05:59:53;15.43;;;13.30;;
15848;SDS011;8024;48.708;9.394;2023-08-17T06:02:21;17.97;;;13.40;;
15848;SDS011;8024;48.708;9.394;2023-08-17T06:04:48;22.10;;;15.57;;
15848;SDS011;8024;48.708;9.394;2023-08-17T06:07:15;18.07;;;14.77;;
15848;SDS011;8024;48.708;9.394;2023-08-17T06:09:42;19.73;;;15.33;;
15848;SDS011;8024;48.708;9.394;2023-08-17T06:12:09;21.30;;;16.07;;
15848;SDS011;8024;48.708;9.394;2023-08-17T06:14:38;26.20;;;16.97;;
15848;SDS011;8024;48.708;9.394;2023-08-17T06:17:05;23.43;;;17.00;;
15848;SDS011;8024;48.708;9.394;2023-08-17T06:19:32;22.90;;;16.70;;
15848;SDS011;8024;48.708;9.394;2023-08-17T06:21:59;23.43;;;17.80;;
15848;SDS011;8024;48.708;9.394;2023-08-17T06:24:26;23.03;;;17.50;;
15848;SDS011;8024;48.708;9.394;2023-08-17T06:26:53;24.00;;;17.73;;
15848;SDS011;8024;48.708;9.394;2023-08-17T06:29:21;23.40;;;17.17;;
15848;SDS011;8024;48.708;9.394;2023-08-17T06:31:49;24.47;;;18.13;;
15848;SDS011;8024;48.708;9.394;2023-08-17T06:34:16;23.53;;;17.50;;
15848;SDS011;8024;48.708;9.394;2023-08-17T06:36:51;24.33;;;17.20;;
15848;SDS011;8024;48.708;9.394;2023-08-17T06:39:23;23.53;;;18.10;;
15848;SDS011;8024;48.708;9.394;2023-08-17T06:41:50;28.03;;;19.47;;
15848;SDS011;8024;48.708;9.394;2023-08-17T06:44:17;20.07;;;14.57;;
15848;SDS011;8024;48.708;9.394;2023-08-17T06:46:45;24.33;;;18.53;;
15848;SDS011;8024;48.708;9.394;2023-08-17T06:49:14;23.37;;;17.10;;
15848;SDS011;8024;48.708;9.394;2023-08-17T06:51:41;24.67;;;17.63;;
15848;SDS011;8024;48.708;9.394;2023-08-17T06:54:08;22.40;;;18.30;;
15848;SDS011;8024;48.708;9.394;2023-08-17T06:56:35;23.53;;;16.57;;
15848;SDS011;8024;48.708;9.394;2023-08-17T06:59:02;20.23;;;16.50;;
15848;SDS011;8024;48.708;9.394;2023-08-17T07:01:30;15.63;;;13.63;;
15848;SDS011;8024;48.708;9.394;2023-08-17T07:03:57;21.37;;;16.20;;
15848;SDS011;8024;48.708;9.394;2023-08-17T07:06:25;18.07;;;14.10;;
15848;SDS011;8024;48.708;9.394;2023-08-17T07:08:53;18.60;;;15.37;;
15848;SDS011;8024;48.708;9.394;2023-08-17T07:11:21;19.53;;;15.63;;
15848;SDS011;8024;48.708;9.394;2023-08-17T07:13:49;20.93;;;15.40;;
15848;SDS011;8024;48.708;9.394;2023-08-17T07:16:16;23.70;;;17.37;;
15848;SDS011;8024;48.708;9.394;2023-08-17T07:18:43;22.67;;;17.03;;
15848;SDS011;8024;48.708;9.394;2023-08-17T07:21:10;21.83;;;16.10;;
15848;SDS011;8024;48.708;9.394;2023-08-17T07:23:39;18.87;;;15.67;;
15848;SDS011;8024;48.708;9.394;2023-08-17T07:26:11;23.07;;;15.90;;
15848;SDS011;8024;48.708;9.394;2023-08-17T07:28:38;19.50;;;15.10;;
15848;SDS011;8024;48.708;9.394;2023-08-17T07:31:05;16.40;;;14.10;;
15848;SDS011;8024;48.708;9.394;2023-08-17T07:33:32;16.77;;;13.80;;
15848;SDS011;8024;48.708;9.394;2023-08-17T07:35:59;12.13;;;10.47;;
15848;SDS011;8024;48.708;9.394;2023-08-17T07:38:26;18.67;;;13.37;;
15848;SDS011;8024;48.708;9.394;2023-08-17T07:40:55;17.63;;;13.97;;
15848;SDS011;8024;48.708;9.394;2023-08-17T07:43:22;18.23;;;13.80;;
15848;SDS011;8024;48.708;9.394;2023-08-17T07:45:54;16.17;;;13.60;;
15848;SDS011;8024;48.708;9.394;2023-08-17T07:48:21;18.40;;;15.07;;
15848;SDS011;8024;48.708;9.394;2023-08-17T07:50:49;16.00;;;13.70;;
15848;SDS011;8024;48.708;9.394;2023-08-17T07:53:16;18.30;;;14.77;;
15848;SDS011;8024;48.708;9.394;2023-08-17T07:55:44;19.80;;;15.80;;
15848;SDS011;8024;48.708;9.394;2023-08-17T07:58:12;18.00;;;14.90;;
15848;SDS011;8024;48.708;9.394;2023-08-17T08:00:39;14.97;;;10.07;;
15848;SDS011;8024;48.708;9.394;2023-08-17T08:03:06;16.77;;;12.07;;
15848;SDS011;8024;48.708;9.394;2023-08-17T08:05:34;17.90;;;13.27;;
15848;SDS011;8024;48.708;9.394;2023-08-17T08:08:01;14.40;;;12.60;;
15848;SDS011;8024;48.708;9.394;2023-08-17T08:10:28;14.70;;;13.20;;
15848;SDS011;8024;48.708;9.394;2023-08-17T08:12:55;16.00;;;11.93;;
15848;SDS011;8024;48.708;9.394;2023-08-17T08:15:24;16.53;;;13.63;;
15848;SDS011;8024;48.708;9.394;2023-08-17T08:17:51;14.50;;;13.00;;
15848;SDS011;8024;48.708;9.394;2023-08-17T08:20:19;18.00;;;14.07;;
15848;SDS011;8024;48.708;9.394;2023-08-17T08:22:47;13.97;;;12.47;;
15848;SDS011;8024;48.708;9.394;2023-08-17T08:25:14;12.23;;;10.20;;
15848;SDS011;8024;48.708;9.394;2023-08-17T08:27:41;10.77;;;8.83;;
15848;SDS011;8024;48.708;9.394;2023-08-17T08:30:08;14.03;;;12.40;;
15848;SDS011;8024;48.708;9.394;2023-08-17T08:32:37;16.10;;;13.23;;
15848;SDS011;8024;48.708;9.394;2023-08-17T08:35:05;13.47;;;12.13;;
15848;SDS011;8024;48.708;9.394;2023-08-17T08:37:32;14.90;;;12.53;;
15848;SDS011;8024;48.708;9.394;2023-08-17T08:39:59;14.97;;;13.37;;
15848;SDS011;8024;48.708;9.394;2023-08-17T08:42:27;15.33;;;13.47;;
15848;SDS011;8024;48.708;9.394;2023-08-17T08:44:54;15.53;;;12.97;;
15848;SDS011;8024;48.708;9.394;2023-08-17T08:47:21;18.20;;;15.13;;
15848;SDS011;8024;48.708;9.394;2023-08-17T08:49:54;15.03;;;13.50;;
15848;SDS011;8024;48.708;9.394;2023-08-17T08:52:28;16.87;;;15.17;;
15848;SDS011;8024;48.708;9.394;2023-08-17T08:54:59;15.70;;;13.97;;
15848;SDS011;8024;48.708;9.394;2023-08-17T08:57:32;16.10;;;14.00;;
15848;SDS011;8024;48.708;9.394;2023-08-17T09:00:00;16.03;;;13.87;;
15848;SDS011;8024;48.708;9.394;2023-08-17T09:02:28;16.27;;;14.43;;
15848;SDS011;8024;48.708;9.394;2023-08-17T09:04:58;16.07;;;14.17;;
15848;SDS011;8024;48.708;9.394;2023-08-17T09:07:26;13.83;;;11.83;;
15848;SDS011;8024;48.708;9.394;2023-08-17T09:09:56;15.73;;;14.20;;
15848;SDS011;8024;48.708;9.394;2023-08-17T09:12:23;16.23;;;13.90;;
15848;SDS011;8024;48.708;9.394;2023-08-17T09:14:51;13.33;;;11.87;;
15848;SDS011;8024;48.708;9.394;2023-08-17T09:17:22;12.50;;;11.20;;
15848;SDS011;8024;48.708;9.394;2023-08-17T09:19:49;11.90;;;10.77;;
15848;SDS011;8024;48.708;9.394;2023-08-17T09:22:22;13.57;;;11.53;;
15848;SDS011;8024;48.708;9.394;2023-08-17T09:24:50;14.47;;;12.47;;
15848;SDS011;8024;48.708;9.394;2023-08-17T09:27:17;12.80;;;11.50;;
15848;SDS011;8024;48.708;9.394;2023-08-17T09:29:44;12.60;;;11.40;;
15848;SDS011;8024;48.708;9.394;2023-08-17T09:32:14;12.47;;;11.13;;
15848;SDS011;8024;48.708;9.394;2023-08-17T09:34:42;13.10;;;11.80;;
15848;SDS011;8024;48.708;9.394;2023-08-17T09:37:11;12.97;;;11.67;;
15848;SDS011;8024;48.708;9.394;2023-08-17T09:39:40;12.43;;;11.13;;
15848;SDS011;8024;48.708;9.394;2023-08-17T09:42:07;12.83;;;10.83;;
15848;SDS011;8024;48.708;9.394;2023-08-17T09:44:36;13.73;;;11.83;;
15848;SDS011;8024;48.708;9.394;2023-08-17T09:47:04;13.53;;;12.13;;
15848;SDS011;8024;48.708;9.394;2023-08-17T09:49:32;12.20;;;11.00;;
15848;SDS011;8024;48.708;9.394;2023-08-17T09:51:59;10.27;;;9.17;;
15848;SDS011;8024;48.708;9.394;2023-08-17T09:54:27;10.97;;;9.87;;
15848;SDS011;8024;48.708;9.394;2023-08-17T09:56:58;9.20;;;8.30;;
15848;SDS011;8024;48.708;9.394;2023-08-17T09:59:26;8.97;;;8.17;;
15848;SDS011;8024;48.708;9.394;2023-08-17T10:01:53;10.97;;;9.87;;
15848;SDS011;8024;48.708;9.394;2023-08-17T10:04:22;11.30;;;10.20;;
15848;SDS011;8024;48.708;9.394;2023-08-17T10:06:51;10.37;;;9.37;;
15848;SDS011;8024;48.708;9.394;2023-08-17T10:09:23;7.67;;;6.97;;
15848;SDS011;8024;48.708;9.394;2023-08-17T10:11:55;10.10;;;9.13;;
15848;SDS011;8024;48.708;9.394;2023-08-17T10:14:28;11.57;;;10.47;;
15848;SDS011;8024;48.708;9.394;2023-08-17T10:17:00;11.90;;;10.57;;
15848;SDS011;8024;48.708;9.394;2023-08-17T10:19:37;8.60;;;7.80;;
15848;SDS011;8024;48.708;9.394;2023-08-17T10:22:15;9.93;;;9.03;;
15848;SDS011;8024;48.708;9.394;2023-08-17T10:24:46;10.27;;;9.40;;
15848;SDS011;8024;48.708;9.394;2023-08-17T10:27:15;11.80;;;10.60;;
15848;SDS011;8024;48.708;9.394;2023-08-17T10:29:42;10.37;;;9.37;;
15848;SDS011;8024;48.708;9.394;2023-08-17T10:32:11;10.57;;;8.90;;
15848;SDS011;8024;48.708;9.394;2023-08-17T10:34:38;10.60;;;9.57;;
15848;SDS011;8024;48.708;9.394;2023-08-17T10:37:06;10.10;;;9.13;;
15848;SDS011;8024;48.708;9.394;2023-08-17T10:39:34;10.23;;;9.23;;
15848;SDS011;8024;48.708;9.394;2023-08-17T10:42:04;10.47;;;9.37;;
15848;SDS011;8024;48.708;9.394;2023-08-17T10:44:39;9.03;;;8.23;;
15848;SDS011;8024;48.708;9.394;2023-08-17T10:47:20;8.73;;;7.93;;
15848;SDS011;8024;48.708;9.394;2023-08-17T10:49:49;7.80;;;7.20;;
15848;SDS011;8024;48.708;9.394;2023-08-17T10:52:24;7.97;;;7.38;;
15848;SDS011;8024;48.708;9.394;2023-08-17T10:54:53;9.20;;;7.87;;
15848;SDS011;8024;48.708;9.394;2023-08-17T10:57:24;8.23;;;7.53;;
15848;SDS011;8024;48.708;9.394;2023-08-17T11:00:15;7.87;;;6.97;;
15848;SDS011;8024;48.708;9.394;2023-08-17T11:02:53;7.10;;;6.40;;
15848;SDS011;8024;48.708;9.394;2023-08-17T11:05:34;6.53;;;6.03;;
15848;SDS011;8024;48.708;9.394;2023-08-17T11:08:02;6.70;;;6.20;;
15848;SDS011;8024;48.708;9.394;2023-08-17T11:10:30;6.45;;;5.85;;
15848;SDS011;8024;48.708;9.394;2023-08-17T11:12:58;6.67;;;5.47;;
15848;SDS011;8024;48.708;9.394;2023-08-17T11:15:34;5.40;;;4.90;;
15848;SDS011;8024;48.708;9.394;2023-08-17T11:18:04;5.82;;;5.25;;
15848;SDS011;8024;48.708;9.394;2023-08-17T11:20:32;6.78;;;6.07;;
15848;SDS011;8024;48.708;9.394;2023-08-17T11:23:00;6.25;;;5.75;;
15848;SDS011;8024;48.708;9.394;2023-08-17T11:25:29;5.03;;;4.63;;
15848;SDS011;8024;48.708;9.394;2023-08-17T11:27:57;5.47;;;5.05;;
15848;SDS011;8024;48.708;9.394;2023-08-17T11:30:25;4.50;;;4.10;;
15848;SDS011;8024;48.708;9.394;2023-08-17T11:32:55;6.72;;;5.32;;
15848;SDS011;8024;48.708;9.394;2023-08-17T11:35:22;5.88;;;5.38;;
15848;SDS011;8024;48.708;9.394;2023-08-17T11:37:49;4.90;;;4.50;;
15848;SDS011;8024;48.708;9.394;2023-08-17T11:40:17;5.27;;;4.77;;
15848;SDS011;8024;48.708;9.394;2023-08-17T11:42:44;4.78;;;4.38;;
15848;SDS011;8024;48.708;9.394;2023-08-17T11:45:12;5.05;;;4.13;;
15848;SDS011;8024;48.708;9.394;2023-08-17T11:47:41;5.10;;;4.72;;
15848;SDS011;8024;48.708;9.394;2023-08-17T11:50:09;5.18;;;4.70;;
15848;SDS011;8024;48.708;9.394;2023-08-17T11:52:37;5.15;;;4.65;;
15848;SDS011;8024;48.708;9.394;2023-08-17T11:55:05;4.90;;;4.43;;
15848;SDS011;8024;48.708;9.394;2023-08-17T11:57:34;4.43;;;4.13;;
15848;SDS011;8024;48.708;9.394;2023-08-17T12:00:03;4.63;;;4.22;;
15848;SDS011;8024;48.708;9.394;2023-08-17T12:02:32;3.95;;;3.65;;
15848;SDS011;8024;48.708;9.394;2023-08-17T12:05:04;3.80;;;3.50;;
15848;SDS011;8024;48.708;9.394;2023-08-17T12:07:32;4.60;;;3.92;;
15848;SDS011;8024;48.708;9.394;2023-08-17T12:09:59;4.28;;;3.85;;
15848;SDS011;8024;48.708;9.394;2023-08-17T12:12:28;5.47;;;4.07;;
15848;SDS011;8024;48.708;9.394;2023-08-17T12:14:56;5.38;;;4.97;;
15848;SDS011;8024;48.708;9.394;2023-08-17T12:17:24;4.72;;;4.43;;
15848;SDS011;8024;48.708;9.394;2023-08-17T12:19:53;4.78;;;4.47;;
15848;SDS011;8024;48.708;9.394;2023-08-17T12:22:24;4.70;;;4.40;;
15848;SDS011;8024;48.708;9.394;2023-08-17T12:24:52;4.43;;;4.07;;
15848;SDS011;8024;48.708;9.394;2023-08-17T12:27:20;4.13;;;3.83;;
15848;SDS011;8024;48.708;9.394;2023-08-17T12:29:49;4.78;;;4.35;;
15848;SDS011;8024;48.708;9.394;2023-08-17T12:32:18;4.47;;;4.10;;
15848;SDS011;8024;48.708;9.394;2023-08-17T12:34:46;4.70;;;4.28;;
15848;SDS011;8024;48.708;9.394;2023-08-17T12:37:17;5.22;;;4.82;;
15848;SDS011;8024;48.708;9.394;2023-08-17T12:39:47;3.83;;;3.60;;
15848;SDS011;8024;48.708;9.394;2023-08-17T12:42:14;4.72;;;4.38;;
15848;SDS011;8024;48.708;9.394;2023-08-17T12:44:43;5.22;;;4.82;;
15848;SDS011;8024;48.708;9.394;2023-08-17T12:47:10;5.67;;;5.27;;
15848;SDS011;8024;48.708;9.394;2023-08-17T12:49:37;7.73;;;5.00;;
15848;SDS011;8024;48.708;9.394;2023-08-17T12:52:04;4.63;;;4.28;;
15848;SDS011;8024;48.708;9.394;2023-08-17T12:54:32;6.63;;;6.03;;
15848;SDS011;8024;48.708;9.394;2023-08-17T12:57:00;6.85;;;6.25;;
15848;SDS011;8024;48.708;9.394;2023-08-17T12:59:28;7.43;;;6.82;;
15848;SDS011;8024;48.708;9.394;2023-08-17T13:01:55;6.70;;;6.20;;
15848;SDS011;8024;48.708;9.394;2023-08-17T13:04:22;7.47;;;6.82;;
15848;SDS011;8024;48.708;9.394;2023-08-17T13:06:49;7.13;;;6.53;;
15848;SDS011;8024;48.708;9.394;2023-08-17T13:09:16;7.37;;;6.77;;
15848;SDS011;8024;48.708;9.394;2023-08-17T13:11:44;8.07;;;7.43;;
15848;SDS011;8024;48.708;9.394;2023-08-17T13:14:13;9.57;;;8.60;;
15848;SDS011;8024;48.708;9.394;2023-08-17T13:16:41;8.73;;;7.93;;
15848;SDS011;8024;48.708;9.394;2023-08-17T13:19:08;9.37;;;8.50;;
15848;SDS011;8024;48.708;9.394;2023-08-17T13:21:35;8.77;;;8.07;;
15848;SDS011;8024;48.708;9.394;2023-08-17T13:24:02;8.13;;;7.27;;
15848;SDS011;8024;48.708;9.394;2023-08-17T13:26:30;9.33;;;8.23;;
15848;SDS011;8024;48.708;9.394;2023-08-17T13:28:58;8.35;;;7.55;;
15848;SDS011;8024;48.708;9.394;2023-08-17T13:31:26;8.17;;;7.33;;
15848;SDS011;8024;48.708;9.394;2023-08-17T13:33:54;7.78;;;7.10;;
15848;SDS011;8024;48.708;9.394;2023-08-17T13:36:21;7.40;;;6.80;;
15848;SDS011;8024;48.708;9.394;2023-08-17T13:38:48;8.73;;;7.90;;
15848;SDS011;8024;48.708;9.394;2023-08-17T13:41:15;9.10;;;8.17;;
15848;SDS011;8024;48.708;9.394;2023-08-17T13:43:42;9.13;;;8.33;;
15848;SDS011;8024;48.708;9.394;2023-08-17T13:46:09;8.83;;;8.00;;
15848;SDS011;8024;48.708;9.394;2023-08-17T13:48:39;8.33;;;7.50;;
15848;SDS011;8024;48.708;9.394;2023-08-17T13:51:06;8.40;;;7.60;;
15848;SDS011;8024;48.708;9.394;2023-08-17T13:53:33;9.30;;;7.80;;
15848;SDS011;8024;48.708;9.394;2023-08-17T13:56:01;9.10;;;8.17;;
15848;SDS011;8024;48.708;9.394;2023-08-17T13:58:28;8.90;;;8.10;;
15848;SDS011;8024;48.708;9.394;2023-08-17T14:00:55;8.93;;;8.03;;
15848;SDS011;8024;48.708;9.394;2023-08-17T14:03:22;7.90;;;7.17;;
15848;SDS011;8024;48.708;9.394;2023-08-17T14:05:51;8.10;;;7.30;;
15848;SDS011;8024;48.708;9.394;2023-08-17T14:08:19;17.03;;;9.37;;
15848;SDS011;8024;48.708;9.394;2023-08-17T14:10:47;7.90;;;6.93;;
15848;SDS011;8024;48.708;9.394;2023-08-17T14:13:14;7.60;;;6.20;;
15848;SDS011;8024;48.708;9.394;2023-08-17T14:15:41;6.90;;;5.80;;
15848;SDS011;8024;48.708;9.394;2023-08-17T14:18:08;6.40;;;5.90;;
15848;SDS011;8024;48.708;9.394;2023-08-17T14:20:35;8.13;;;7.33;;
15848;SDS011;8024;48.708;9.394;2023-08-17T14:23:04;8.67;;;6.83;;
15848;SDS011;8024;48.708;9.394;2023-08-17T14:25:31;8.63;;;7.78;;
15848;SDS011;8024;48.708;9.394;2023-08-17T14:27:58;7.93;;;7.22;;
15848;SDS011;8024;48.708;9.394;2023-08-17T14:30:25;8.30;;;7.03;;
15848;SDS011;8024;48.708;9.394;2023-08-17T14:32:52;7.73;;;7.03;;
15848;SDS011;8024;48.708;9.394;2023-08-17T14:35:19;9.70;;;6.10;;
15848;SDS011;8024;48.708;9.394;2023-08-17T14:37:47;7.80;;;6.00;;
15848;SDS011;8024;48.708;9.394;2023-08-17T14:40:15;8.53;;;6.73;;
15848;SDS011;8024;48.708;9.394;2023-08-17T14:42:42;7.60;;;5.57;;
15848;SDS011;8024;48.708;9.394;2023-08-17T14:45:10;9.25;;;5.60;;
15848;SDS011;8024;48.708;9.394;2023-08-17T14:47:37;6.20;;;5.60;;
15848;SDS011;8024;48.708;9.394;2023-08-17T14:50:05;6.23;;;5.63;;
15848;SDS011;8024;48.708;9.394;2023-08-17T14:52:33;8.60;;;5.25;;
15848;SDS011;8024;48.708;9.394;2023-08-17T14:55:00;5.93;;;5.30;;